createdAt,value
2022-08-29T00:01:13.463Z,2.20
2022-08-29T00:03:31.929Z,2.40
2022-08-29T00:05:50.126Z,2.20
2022-08-29T00:08:07.580Z,2.10
2022-08-29T00:10:24.997Z,2.40
2022-08-29T00:12:42.304Z,2.30
2022-08-29T00:14:59.244Z,2.65
2022-08-29T00:17:16.578Z,2.20
2022-08-29T00:19:34.423Z,2.40
2022-08-29T00:21:51.454Z,2.20
2022-08-29T00:24:08.962Z,2.33
2022-08-29T00:26:27.118Z,2.30
2022-08-29T00:28:50.043Z,2.60
2022-08-29T00:31:07.079Z,2.30
2022-08-29T00:33:24.292Z,2.58
2022-08-29T00:35:41.774Z,2.40
2022-08-29T00:37:58.778Z,2.53
2022-08-29T00:40:17.160Z,2.40
2022-08-29T00:42:34.262Z,2.30
2022-08-29T00:44:51.322Z,2.53
2022-08-29T00:47:08.774Z,2.20
2022-08-29T00:49:26.039Z,2.40
2022-08-29T00:51:43.065Z,2.22
2022-08-29T00:54:00.074Z,2.60
2022-08-29T00:56:17.517Z,2.28
2022-08-29T00:58:35.485Z,2.40
2022-08-29T01:00:52.647Z,2.30
2022-08-29T01:03:10.018Z,2.40
2022-08-29T01:05:27.136Z,2.28
2022-08-29T01:07:47.131Z,2.30
2022-08-29T01:10:13.269Z,2.67
2022-08-29T01:12:31.005Z,2.63
2022-08-29T01:14:48.115Z,2.45
2022-08-29T01:17:05.430Z,2.40
2022-08-29T01:19:23.422Z,2.30
2022-08-29T01:21:45.018Z,2.28
2022-08-29T01:24:02.023Z,2.55
2022-08-29T01:26:20.495Z,2.63
2022-08-29T01:28:37.747Z,2.30
2022-08-29T01:30:56.001Z,2.60
2022-08-29T01:33:13.058Z,2.67
2022-08-29T01:35:32.205Z,2.25
2022-08-29T01:37:50.647Z,2.50
2022-08-29T01:40:07.706Z,2.35
2022-08-29T01:42:24.774Z,2.50
2022-08-29T01:44:41.888Z,2.38
2022-08-29T01:47:03.075Z,2.75
2022-08-29T01:49:20.578Z,2.53
2022-08-29T01:51:37.678Z,2.72
2022-08-29T01:53:54.587Z,2.30
2022-08-29T01:56:11.510Z,2.80
2022-08-29T01:58:28.802Z,2.65
2022-08-29T02:00:46.168Z,2.58
2022-08-29T02:03:04.209Z,2.28
2022-08-29T02:05:21.530Z,2.20
2022-08-29T02:07:39.594Z,2.55
2022-08-29T02:09:56.501Z,2.42
2022-08-29T02:12:13.498Z,2.30
2022-08-29T02:14:30.740Z,2.30
2022-08-29T02:16:47.867Z,2.47
2022-08-29T02:19:04.997Z,2.58
2022-08-29T02:21:21.922Z,2.42
2022-08-29T02:23:39.018Z,2.38
2022-08-29T02:25:57.393Z,2.58
2022-08-29T02:28:15.639Z,2.50
2022-08-29T02:30:32.866Z,2.40
2022-08-29T02:32:49.793Z,2.67
2022-08-29T02:35:07.670Z,2.35
2022-08-29T02:37:28.157Z,2.60
2022-08-29T02:39:45.505Z,2.42
2022-08-29T02:42:03.917Z,2.30
2022-08-29T02:44:21.182Z,2.78
2022-08-29T02:46:39.044Z,2.40
2022-08-29T02:49:00.481Z,2.40
2022-08-29T02:51:18.735Z,2.50
2022-08-29T02:53:35.916Z,2.58
2022-08-29T02:55:53.952Z,2.47
2022-08-29T02:58:10.942Z,2.30
2022-08-29T03:00:28.136Z,2.40
2022-08-29T03:02:45.313Z,2.20
2022-08-29T03:05:02.313Z,2.50
2022-08-29T03:07:20.353Z,2.20
2022-08-29T03:09:38.431Z,2.30
2022-08-29T03:11:55.771Z,2.60
2022-08-29T03:14:12.857Z,2.58
2022-08-29T03:16:33.096Z,2.42
2022-08-29T03:18:50.445Z,2.13
2022-08-29T03:21:08.105Z,2.55
2022-08-29T03:23:26.433Z,2.45
2022-08-29T03:25:43.440Z,2.40
2022-08-29T03:28:00.740Z,2.75
2022-08-29T03:30:18.007Z,2.38
2022-08-29T03:32:35.036Z,2.60
2022-08-29T03:34:51.998Z,2.70
2022-08-29T03:37:09.048Z,2.60
2022-08-29T03:39:26.061Z,2.45
2022-08-29T03:41:43.066Z,2.47
2022-08-29T03:44:00.123Z,2.58
2022-08-29T03:46:17.383Z,2.40
2022-08-29T03:48:34.429Z,2.65
2022-08-29T03:50:55.844Z,2.35
2022-08-29T03:53:13.797Z,2.28
2022-08-29T03:55:31.144Z,2.55
2022-08-29T03:57:48.453Z,2.83
2022-08-29T04:00:07.978Z,2.65
2022-08-29T04:02:26.013Z,2.70
2022-08-29T04:04:44.936Z,2.42
2022-08-29T04:07:02.939Z,2.40
2022-08-29T04:09:20.288Z,2.58
2022-08-29T04:11:37.331Z,2.22
2022-08-29T04:13:54.593Z,2.50
2022-08-29T04:16:11.716Z,2.20
2022-08-29T04:18:28.761Z,2.70
2022-08-29T04:20:45.704Z,2.50
2022-08-29T04:23:03.027Z,2.55
2022-08-29T04:25:19.993Z,2.80
2022-08-29T04:27:37.236Z,3.17
2022-08-29T04:29:55.292Z,2.72
2022-08-29T04:32:12.373Z,2.60
2022-08-29T04:34:29.436Z,2.17
2022-08-29T04:36:46.527Z,2.72
2022-08-29T04:39:03.440Z,2.75
2022-08-29T04:41:20.361Z,2.30
2022-08-29T04:43:37.271Z,2.42
2022-08-29T04:45:54.609Z,2.67
2022-08-29T04:48:11.937Z,2.40
2022-08-29T04:50:28.918Z,2.20
2022-08-29T04:52:45.924Z,2.40
2022-08-29T04:55:03.223Z,2.42
2022-08-29T04:57:21.213Z,2.42
2022-08-29T04:59:38.806Z,2.50
2022-08-29T05:01:56.120Z,2.45
2022-08-29T05:04:14.653Z,2.58
2022-08-29T05:06:32.031Z,2.80
2022-08-29T05:08:48.965Z,2.30
2022-08-29T05:11:16.321Z,2.80
2022-08-29T05:13:40.233Z,2.40
2022-08-29T05:16:00.037Z,2.78
2022-08-29T05:18:18.391Z,2.45
2022-08-29T05:20:35.452Z,2.67
2022-08-29T05:22:52.716Z,2.50
2022-08-29T05:25:11.568Z,2.38
2022-08-29T05:27:31.545Z,2.58
2022-08-29T05:29:48.619Z,2.30
2022-08-29T05:32:05.827Z,2.72
2022-08-29T05:34:34.742Z,2.40
2022-08-29T05:36:52.466Z,2.75
2022-08-29T05:39:09.463Z,2.83
2022-08-29T05:41:30.956Z,2.35
2022-08-29T05:43:55.605Z,2.50
2022-08-29T05:46:12.679Z,2.75
2022-08-29T05:48:30.014Z,2.38
2022-08-29T05:50:48.287Z,2.85
2022-08-29T05:53:05.369Z,2.38
2022-08-29T05:55:22.487Z,2.42
2022-08-29T05:57:39.503Z,2.63
2022-08-29T05:59:56.538Z,2.40
2022-08-29T06:02:13.547Z,2.55
2022-08-29T06:04:30.704Z,2.40
2022-08-29T06:06:47.592Z,2.50
2022-08-29T06:09:04.506Z,2.50
2022-08-29T06:11:21.483Z,2.60
2022-08-29T06:13:38.422Z,2.53
2022-08-29T06:15:55.440Z,2.58
2022-08-29T06:18:12.725Z,2.47
2022-08-29T06:20:29.824Z,2.65
2022-08-29T06:22:47.090Z,2.13
2022-08-29T06:25:21.791Z,2.30
2022-08-29T06:27:41.658Z,2.25
2022-08-29T06:30:01.722Z,2.33
2022-08-29T06:32:19.100Z,2.47
2022-08-29T06:34:36.248Z,2.65
2022-08-29T06:36:53.197Z,2.25
2022-08-29T06:39:10.541Z,2.40
2022-08-29T06:41:27.900Z,2.30
2022-08-29T06:43:44.865Z,2.25
2022-08-29T06:46:01.902Z,2.22
2022-08-29T06:48:19.210Z,2.38
2022-08-29T06:50:36.235Z,2.25
2022-08-29T06:52:55.615Z,2.40
2022-08-29T06:55:13.048Z,2.63
2022-08-29T06:57:32.091Z,2.40
2022-08-29T06:59:49.165Z,2.70
2022-08-29T07:02:06.208Z,2.40
2022-08-29T07:04:26.468Z,2.40
2022-08-29T07:06:44.169Z,2.47
2022-08-29T07:09:02.173Z,2.45
2022-08-29T07:11:19.262Z,2.58
2022-08-29T07:13:36.531Z,2.47
2022-08-29T07:15:53.762Z,2.20
2022-08-29T07:18:10.898Z,2.20
2022-08-29T07:20:27.893Z,2.40
2022-08-29T07:22:44.834Z,2.20
2022-08-29T07:25:02.102Z,2.20
2022-08-29T07:27:19.348Z,2.40
2022-08-29T07:29:36.433Z,2.80
2022-08-29T07:31:53.465Z,2.53
2022-08-29T07:34:10.511Z,2.50
2022-08-29T07:36:27.570Z,2.65
2022-08-29T07:38:44.718Z,2.53
2022-08-29T07:41:01.797Z,2.33
2022-08-29T07:43:20.471Z,2.30
2022-08-29T07:45:39.586Z,2.40
2022-08-29T07:47:56.780Z,2.45
2022-08-29T07:50:13.986Z,2.30
2022-08-29T07:52:31.301Z,2.70
2022-08-29T07:54:48.620Z,2.13
2022-08-29T07:57:05.567Z,2.60
2022-08-29T07:59:22.771Z,2.20
2022-08-29T08:01:39.739Z,2.45
2022-08-29T08:03:57.254Z,2.50
2022-08-29T08:06:14.601Z,2.30
2022-08-29T08:08:31.778Z,2.38
2022-08-29T08:10:52.192Z,2.45
2022-08-29T08:13:09.418Z,2.28
2022-08-29T08:15:26.409Z,2.30
2022-08-29T08:17:44.944Z,2.28
2022-08-29T08:20:01.993Z,2.25
2022-08-29T08:22:18.969Z,2.45
2022-08-29T08:24:36.321Z,2.55
2022-08-29T08:26:53.343Z,2.72
2022-08-29T08:29:10.453Z,2.25
2022-08-29T08:31:27.581Z,2.28
2022-08-29T08:33:45.203Z,2.20
2022-08-29T08:36:02.497Z,2.50
2022-08-29T08:38:20.161Z,2.30
2022-08-29T08:40:37.500Z,2.50
2022-08-29T08:42:54.692Z,2.25
2022-08-29T08:45:11.761Z,2.90
2022-08-29T08:47:28.737Z,2.35
2022-08-29T08:49:46.087Z,2.40
2022-08-29T08:52:04.087Z,1.90
2022-08-29T08:54:21.139Z,2.20
2022-08-29T08:56:38.495Z,2.40
2022-08-29T08:58:55.493Z,2.30
2022-08-29T09:01:13.532Z,2.60
2022-08-29T09:03:30.620Z,2.40
2022-08-29T09:05:49.319Z,2.00
2022-08-29T09:08:06.548Z,2.30
2022-08-29T09:10:23.876Z,2.15
2022-08-29T09:12:40.916Z,2.53
2022-08-29T09:14:58.909Z,2.10
2022-08-29T09:17:16.249Z,2.55
2022-08-29T09:19:33.235Z,2.20
2022-08-29T09:21:50.623Z,2.10
2022-08-29T09:24:07.896Z,2.17
2022-08-29T09:26:25.167Z,2.30
2022-08-29T09:28:42.228Z,2.30
2022-08-29T09:30:59.369Z,2.50
2022-08-29T09:33:17.781Z,2.47
2022-08-29T09:35:36.113Z,2.30
2022-08-29T09:37:53.152Z,2.40
2022-08-29T09:40:10.227Z,2.30
2022-08-29T09:42:28.680Z,2.53
2022-08-29T09:44:45.539Z,2.50
2022-08-29T09:47:02.565Z,2.20
2022-08-29T09:49:20.579Z,2.63
2022-08-29T09:51:37.545Z,2.50
2022-08-29T09:53:54.871Z,2.53
2022-08-29T09:56:13.162Z,2.50
2022-08-29T09:58:30.236Z,2.20
2022-08-29T10:00:47.245Z,2.28
2022-08-29T10:03:04.296Z,2.53
2022-08-29T10:05:22.074Z,2.50
2022-08-29T10:07:40.009Z,2.55
2022-08-29T10:09:57.642Z,2.05
2022-08-29T10:12:14.845Z,2.40
2022-08-29T10:14:31.891Z,2.50
2022-08-29T10:16:49.906Z,2.05
2022-08-29T10:19:07.574Z,2.55
2022-08-29T10:21:24.653Z,3.00
2022-08-29T10:23:41.688Z,2.40
2022-08-29T10:25:58.670Z,2.53
2022-08-29T10:28:16.752Z,2.58
2022-08-29T10:30:33.818Z,2.50
2022-08-29T10:32:50.871Z,2.30
2022-08-29T10:35:08.249Z,2.42
2022-08-29T10:37:25.283Z,2.40
2022-08-29T10:39:42.539Z,2.50
2022-08-29T10:42:00.265Z,2.50
2022-08-29T10:46:39.055Z,2.38
2022-08-29T10:48:56.087Z,2.67
2022-08-29T10:51:13.462Z,3.10
2022-08-29T10:53:34.575Z,3.40
2022-08-29T10:55:51.883Z,3.50
2022-08-29T10:58:12.626Z,3.78
2022-08-29T11:00:30.877Z,3.50
2022-08-29T11:02:47.906Z,3.10
2022-08-29T11:05:07.531Z,3.35
2022-08-29T11:07:25.853Z,3.50
2022-08-29T11:09:42.910Z,3.35
2022-08-29T11:11:59.815Z,3.10
2022-08-29T11:14:16.814Z,3.08
2022-08-29T11:16:33.954Z,3.28
2022-08-29T11:18:51.057Z,3.10
2022-08-29T11:21:08.141Z,2.80
2022-08-29T11:23:25.118Z,2.50
2022-08-29T11:25:42.522Z,2.78
2022-08-29T11:28:00.107Z,2.78
2022-08-29T11:30:17.105Z,2.72
2022-08-29T11:32:36.141Z,2.80
2022-08-29T11:34:53.352Z,2.90
2022-08-29T11:37:10.387Z,2.72
2022-08-29T11:39:27.683Z,2.60
2022-08-29T11:41:45.058Z,2.60
2022-08-29T11:44:02.334Z,2.42
2022-08-29T11:46:20.751Z,3.13
2022-08-29T11:48:39.978Z,2.80
2022-08-29T11:50:57.318Z,3.00
2022-08-29T11:53:16.771Z,2.97
2022-08-29T11:55:34.332Z,2.65
2022-08-29T11:57:51.275Z,2.72
2022-08-29T12:00:08.307Z,2.80
2022-08-29T12:02:25.277Z,2.90
2022-08-29T12:04:42.378Z,2.63
2022-08-29T12:07:01.391Z,2.65
2022-08-29T12:09:19.896Z,2.78
2022-08-29T12:11:39.058Z,2.70
2022-08-29T12:13:56.467Z,2.92
2022-08-29T12:16:14.856Z,2.80
2022-08-29T12:18:36.213Z,2.80
2022-08-29T12:20:53.531Z,2.53
2022-08-29T12:23:10.809Z,3.20
2022-08-29T12:25:27.790Z,2.80
2022-08-29T12:27:45.101Z,2.70
2022-08-29T12:30:02.280Z,3.00
2022-08-29T12:32:22.295Z,2.90
2022-08-29T12:34:40.866Z,2.63
2022-08-29T12:37:00.109Z,3.00
2022-08-29T12:39:19.524Z,2.75
2022-08-29T12:41:39.063Z,3.03
2022-08-29T12:43:56.827Z,2.92
2022-08-29T12:46:14.201Z,2.92
2022-08-29T12:48:31.304Z,2.88
2022-08-29T12:50:48.636Z,3.08
2022-08-29T12:53:05.867Z,3.35
2022-08-29T12:55:22.975Z,3.20
2022-08-29T12:57:45.973Z,3.53
2022-08-29T13:00:03.095Z,2.75
2022-08-29T13:02:20.551Z,3.15
2022-08-29T13:04:37.934Z,3.10
2022-08-29T13:06:55.011Z,3.20
2022-08-29T13:09:14.423Z,3.45
2022-08-29T13:11:34.641Z,3.00
2022-08-29T13:13:51.952Z,3.33
2022-08-29T13:16:09.345Z,3.53
2022-08-29T13:18:26.379Z,3.10
2022-08-29T13:20:43.683Z,3.40
2022-08-29T13:23:01.659Z,3.25
2022-08-29T13:25:18.810Z,3.25
2022-08-29T13:27:36.139Z,3.35
2022-08-29T13:29:53.597Z,3.40
2022-08-29T13:32:11.628Z,3.17
2022-08-29T13:34:28.939Z,3.25
2022-08-29T13:36:46.144Z,3.30
2022-08-29T13:39:03.188Z,3.30
2022-08-29T13:41:20.322Z,3.10
2022-08-29T13:43:37.689Z,3.28
2022-08-29T13:45:54.848Z,3.30
2022-08-29T13:48:12.174Z,3.33
2022-08-29T13:50:29.166Z,3.22
2022-08-29T13:52:46.479Z,3.25
2022-08-29T13:55:03.792Z,3.38
2022-08-29T13:57:21.085Z,3.15
2022-08-29T13:59:38.296Z,3.15
2022-08-29T14:02:11.418Z,2.88
2022-08-29T14:04:37.973Z,3.03
2022-08-29T14:06:56.388Z,3.10
2022-08-29T14:09:15.806Z,3.05
2022-08-29T14:11:32.877Z,3.17
2022-08-29T14:13:49.992Z,3.20
2022-08-29T14:16:08.045Z,3.10
2022-08-29T14:18:25.453Z,3.58
2022-08-29T14:20:43.884Z,3.30
2022-08-29T14:23:00.913Z,3.40
2022-08-29T14:25:19.398Z,3.10
2022-08-29T14:27:36.475Z,2.67
2022-08-29T14:29:53.598Z,3.40
2022-08-29T14:32:10.935Z,3.40
2022-08-29T14:34:32.170Z,3.40
2022-08-29T14:36:49.636Z,3.15
2022-08-29T14:39:06.633Z,3.58
2022-08-29T14:41:23.810Z,3.25
2022-08-29T14:43:40.888Z,3.08
2022-08-29T14:45:57.988Z,3.40
2022-08-29T14:48:15.479Z,3.13
2022-08-29T14:50:33.051Z,3.00
2022-08-29T14:52:50.414Z,3.03
2022-08-29T14:55:08.299Z,3.13
2022-08-29T14:57:26.607Z,3.00
2022-08-29T14:59:43.876Z,3.05
2022-08-29T15:02:00.898Z,3.22
2022-08-29T15:04:17.981Z,3.53
2022-08-29T15:06:38.857Z,3.53
2022-08-29T15:08:55.870Z,2.90
2022-08-29T15:11:12.948Z,3.05
2022-08-29T15:13:30.275Z,3.40
2022-08-29T15:15:47.303Z,3.10
2022-08-29T15:18:04.476Z,3.17
2022-08-29T15:20:38.768Z,3.20
2022-08-29T15:22:59.104Z,3.20
2022-08-29T15:25:16.192Z,3.03
2022-08-29T15:27:33.263Z,3.25
2022-08-29T15:29:50.309Z,3.00
2022-08-29T15:32:07.305Z,2.67
2022-08-29T15:34:24.232Z,3.00
2022-08-29T15:36:42.275Z,3.00
2022-08-29T15:38:59.535Z,3.50
2022-08-29T15:41:16.832Z,3.30
2022-08-29T15:43:34.083Z,3.05
2022-08-29T15:45:51.143Z,3.30
2022-08-29T15:48:11.697Z,3.40
2022-08-29T15:50:29.205Z,3.22
2022-08-29T15:52:46.470Z,3.00
2022-08-29T15:55:03.735Z,3.60
2022-08-29T15:57:20.978Z,3.00
2022-08-29T15:59:57.059Z,3.00
2022-08-29T16:02:15.076Z,3.40
2022-08-29T16:04:31.997Z,3.38
2022-08-29T16:06:49.219Z,3.00
2022-08-29T16:09:15.115Z,3.35
2022-08-29T16:11:32.906Z,3.05
2022-08-29T16:13:54.979Z,3.20
2022-08-29T16:16:19.604Z,2.97
2022-08-29T16:18:36.689Z,3.65
2022-08-29T16:20:56.720Z,3.20
2022-08-29T16:23:13.869Z,3.10
2022-08-29T16:25:31.238Z,3.38
2022-08-29T16:27:48.143Z,3.00
2022-08-29T16:30:05.207Z,2.90
2022-08-29T16:32:22.257Z,3.40
2022-08-29T16:34:39.213Z,3.10
2022-08-29T16:36:56.285Z,3.47
2022-08-29T16:39:13.310Z,3.08
2022-08-29T16:41:30.406Z,3.03
2022-08-29T16:43:47.470Z,3.60
2022-08-29T16:46:04.739Z,3.00
2022-08-29T16:48:22.139Z,3.40
2022-08-29T16:50:40.157Z,3.72
2022-08-29T16:52:58.674Z,3.15
2022-08-29T16:55:15.666Z,3.17
2022-08-29T16:57:32.744Z,2.92
2022-08-29T16:59:50.061Z,3.33
2022-08-29T17:02:07.357Z,2.92
2022-08-29T17:04:24.368Z,3.33
2022-08-29T17:06:41.397Z,3.10
2022-08-29T17:08:59.324Z,2.90
2022-08-29T17:11:16.602Z,3.58
2022-08-29T17:13:33.849Z,3.30
2022-08-29T17:15:52.928Z,3.05
2022-08-29T17:18:09.879Z,2.80
2022-08-29T17:20:26.788Z,3.13
2022-08-29T17:22:44.100Z,3.22
2022-08-29T17:25:02.348Z,3.55
2022-08-29T17:27:21.639Z,3.17
2022-08-29T17:29:39.284Z,3.40
2022-08-29T17:31:58.863Z,3.30
2022-08-29T17:34:16.153Z,3.15
2022-08-29T17:36:33.179Z,2.97
2022-08-29T17:38:50.436Z,3.08
2022-08-29T17:41:15.224Z,3.03
2022-08-29T17:43:34.246Z,3.08
2022-08-29T17:45:52.597Z,3.20
2022-08-29T17:48:09.739Z,2.95
2022-08-29T17:50:26.848Z,3.30
2022-08-29T17:52:44.045Z,3.00
2022-08-29T17:55:06.517Z,3.38
2022-08-29T17:57:24.315Z,3.17
2022-08-29T17:59:41.725Z,2.80
2022-08-29T18:01:58.800Z,3.53
2022-08-29T18:04:15.953Z,3.00
2022-08-29T18:06:33.321Z,2.78
2022-08-29T18:08:50.268Z,3.15
2022-08-29T18:11:07.253Z,3.40
2022-08-29T18:13:24.165Z,3.30
2022-08-29T18:15:42.449Z,3.00
2022-08-29T18:17:59.362Z,3.08
2022-08-29T18:20:16.632Z,2.95
2022-08-29T18:22:33.690Z,3.17
2022-08-29T18:24:50.914Z,3.25
2022-08-29T18:27:08.407Z,3.38
2022-08-29T18:29:25.335Z,3.05
2022-08-29T18:31:42.320Z,3.20
2022-08-29T18:34:00.995Z,3.22
2022-08-29T18:36:19.539Z,3.30
2022-08-29T18:38:36.475Z,3.25
2022-08-29T18:40:53.863Z,3.30
2022-08-29T18:43:11.335Z,3.40
2022-08-29T18:45:29.641Z,3.38
2022-08-29T18:47:46.935Z,3.30
2022-08-29T18:50:04.218Z,3.65
2022-08-29T18:52:21.853Z,3.78
2022-08-29T18:54:39.828Z,4.00
2022-08-29T18:56:56.866Z,3.60
2022-08-29T18:59:14.140Z,3.53
2022-08-29T19:01:31.218Z,3.10
2022-08-29T19:03:48.335Z,3.20
2022-08-29T19:06:05.788Z,3.30
2022-08-29T19:08:22.731Z,3.15
2022-08-29T19:10:39.748Z,3.25
2022-08-29T19:12:57.066Z,3.47
2022-08-29T19:15:14.062Z,3.78
2022-08-29T19:17:31.370Z,3.40
2022-08-29T19:19:48.393Z,3.55
2022-08-29T19:22:12.467Z,3.55
2022-08-29T19:24:29.784Z,3.22
2022-08-29T19:26:46.719Z,3.50
2022-08-29T19:29:03.809Z,3.50
2022-08-29T19:31:21.181Z,3.30
2022-08-29T19:33:39.172Z,3.78
2022-08-29T19:35:56.439Z,3.55
2022-08-29T19:38:13.759Z,3.30
2022-08-29T19:40:34.997Z,3.42
2022-08-29T19:42:53.297Z,3.20
2022-08-29T19:45:10.370Z,3.58
2022-08-29T19:47:27.625Z,3.30
2022-08-29T19:49:45.591Z,3.38
2022-08-29T19:52:02.561Z,3.60
2022-08-29T19:54:19.619Z,3.30
2022-08-29T19:56:36.565Z,3.45
2022-08-29T19:58:54.334Z,3.42
2022-08-29T20:01:12.374Z,3.65
2022-08-29T20:03:29.794Z,3.45
2022-08-29T20:05:47.084Z,3.55
2022-08-29T20:08:04.009Z,3.80
2022-08-29T20:10:21.901Z,3.40
2022-08-29T20:12:39.727Z,3.65
2022-08-29T20:14:56.957Z,3.50
2022-08-29T20:17:13.888Z,3.28
2022-08-29T20:19:30.855Z,3.53
2022-08-29T20:21:47.915Z,3.53
2022-08-29T20:24:04.933Z,3.47
2022-08-29T20:26:22.165Z,3.53
2022-08-29T20:28:39.202Z,2.92
2022-08-29T20:30:56.118Z,3.42
2022-08-29T20:33:14.051Z,3.53
2022-08-29T20:35:31.145Z,3.30
2022-08-29T20:37:49.322Z,3.75
2022-08-29T20:40:06.632Z,4.13
2022-08-29T20:42:23.902Z,4.00
2022-08-29T20:44:41.012Z,4.00
2022-08-29T20:46:58.068Z,4.05
2022-08-29T20:49:15.340Z,3.50
2022-08-29T20:51:32.619Z,3.95
2022-08-29T20:53:49.936Z,3.50
2022-08-29T20:56:06.993Z,3.65
2022-08-29T20:58:23.997Z,3.00
2022-08-29T21:00:42.444Z,3.40
2022-08-29T21:02:59.540Z,3.53
2022-08-29T21:05:16.866Z,3.47
2022-08-29T21:07:35.327Z,3.65
2022-08-29T21:09:52.574Z,4.07
2022-08-29T21:12:09.562Z,3.30
2022-08-29T21:14:26.498Z,3.95
2022-08-29T21:16:43.750Z,3.70
2022-08-29T21:19:02.068Z,3.53
2022-08-29T21:21:22.000Z,3.88
2022-08-29T21:23:41.658Z,3.67
2022-08-29T21:25:58.761Z,3.60
2022-08-29T21:28:15.794Z,3.60
2022-08-29T21:30:32.732Z,3.33
2022-08-29T21:32:49.806Z,3.70
2022-08-29T21:35:07.766Z,3.88
2022-08-29T21:37:25.064Z,3.65
2022-08-29T21:39:42.128Z,3.47
2022-08-29T21:42:00.964Z,3.88
2022-08-29T21:44:20.075Z,3.42
2022-08-29T21:46:37.168Z,3.88
2022-08-29T21:48:56.661Z,3.78
2022-08-29T21:51:14.193Z,3.47
2022-08-29T21:53:31.499Z,3.78
2022-08-29T21:55:49.944Z,3.70
2022-08-29T21:58:08.174Z,3.42
2022-08-29T22:00:25.522Z,3.83
2022-08-29T22:02:42.601Z,4.13
2022-08-29T22:04:59.719Z,3.47
2022-08-29T22:07:16.805Z,3.72
2022-08-29T22:09:33.792Z,4.00
2022-08-29T22:11:51.066Z,3.97
2022-08-29T22:14:07.970Z,3.58
2022-08-29T22:16:25.023Z,3.72
2022-08-29T22:18:42.011Z,3.70
2022-08-29T22:20:58.966Z,3.80
2022-08-29T22:23:17.518Z,3.75
2022-08-29T22:25:37.062Z,3.97
2022-08-29T22:27:54.406Z,3.83
2022-08-29T22:30:15.541Z,3.40
2022-08-29T22:32:35.913Z,3.97
2022-08-29T22:34:53.152Z,3.88
2022-08-29T22:37:10.397Z,4.07
2022-08-29T22:39:27.340Z,4.00
2022-08-29T22:41:47.524Z,3.63
2022-08-29T22:46:41.708Z,3.60
2022-08-29T22:48:58.691Z,4.20
2022-08-29T22:51:15.993Z,3.75
2022-08-29T22:53:33.055Z,3.80
2022-08-29T22:55:50.010Z,3.70
2022-08-29T22:58:06.943Z,4.30
2022-08-29T23:00:23.879Z,4.15
2022-08-29T23:02:41.257Z,4.05
2022-08-29T23:04:58.193Z,3.80
2022-08-29T23:07:15.166Z,4.00
2022-08-29T23:09:35.392Z,3.75
2022-08-29T23:11:52.985Z,3.88
2022-08-29T23:14:12.443Z,3.70
2022-08-29T23:16:29.675Z,3.75
2022-08-29T23:18:46.553Z,3.85
2022-08-29T23:21:03.613Z,4.30
2022-08-29T23:23:21.672Z,3.90
2022-08-29T23:25:38.605Z,3.80
2022-08-29T23:27:55.913Z,3.90
2022-08-29T23:30:13.170Z,4.10
2022-08-29T23:32:30.475Z,3.90
2022-08-29T23:34:47.441Z,4.05
2022-08-29T23:37:04.469Z,4.25
2022-08-29T23:39:21.844Z,4.07
2022-08-29T23:41:39.130Z,3.75
2022-08-29T23:43:55.987Z,3.65
2022-08-29T23:46:13.337Z,4.10
2022-08-29T23:48:30.444Z,4.20
2022-08-29T23:50:48.994Z,3.50
2022-08-29T23:53:05.997Z,4.03
2022-08-29T23:55:23.100Z,4.03
2022-08-29T23:57:42.679Z,4.53
2022-08-29T23:59:59.681Z,3.95
